Time;durP1;ratioP1;P1;durP2;ratioP2;P2;SDS_P1;SDS_P2;PMS_P1;PMS_P2;Temp;Humidity;BMP_temperature;BMP_pressure;BME280_temperature;BME280_humidity;BME280_pressure;Samples;Min_cycle;Max_cycle;Signal;HPM_P1;HPM_P2
2022/08/06 00:01:53;;;;;;;1.27;0.30;;;13.50;99.90;;;;;;5016724;28;20091;-64
2022/08/06 00:04:19;;;;;;;1.63;0.60;;;13.60;99.90;;;;;;5023915;28;20041;-61
2022/08/06 00:06:45;;;;;;;1.17;0.50;;;13.60;99.90;;;;;;5013174;28;20229;-60
2022/08/06 00:09:11;;;;;;;3.92;0.85;;;13.50;99.90;;;;;;5025224;28;20500;-57
2022/08/06 00:11:38;;;;;;;4.50;0.77;;;13.60;99.90;;;;;;5025955;28;20045;-64
2022/08/06 00:14:04;;;;;;;4.40;0.60;;;13.60;99.90;;;;;;5001372;28;20087;-62
2022/08/06 00:16:30;;;;;;;2.85;0.45;;;13.60;99.90;;;;;;5021024;28;20037;-57
2022/08/06 00:18:56;;;;;;;1.50;0.45;;;13.60;99.90;;;;;;5025926;28;20722;-54
2022/08/06 00:21:22;;;;;;;2.30;0.40;;;13.60;99.90;;;;;;5025492;28;20038;-58
2022/08/06 00:23:47;;;;;;;2.58;0.50;;;13.50;99.90;;;;;;5026285;28;20049;-58
2022/08/06 00:26:13;;;;;;;0.55;0.40;;;13.60;99.90;;;;;;5024856;28;20049;-56
2022/08/06 00:28:39;;;;;;;0.85;0.55;;;13.60;99.90;;;;;;5026207;28;20081;-62
2022/08/06 00:31:07;;;;;;;0.68;0.45;;;13.50;99.90;;;;;;5025166;28;20054;-59
2022/08/06 00:33:33;;;;;;;1.30;0.65;;;13.50;99.90;;;;;;5026063;28;20121;-63
2022/08/06 00:35:59;;;;;;;2.80;0.65;;;13.50;99.90;;;;;;5007614;28;20080;-58
2022/08/06 00:38:25;;;;;;;1.50;0.43;;;13.50;99.90;;;;;;5025086;28;20069;-65
2022/08/06 00:40:51;;;;;;;2.63;0.60;;;13.50;99.90;;;;;;5025754;28;20045;-62
2022/08/06 00:43:17;;;;;;;1.98;0.55;;;13.40;99.90;;;;;;5006749;28;20058;-62
2022/08/06 00:45:43;;;;;;;1.60;0.50;;;13.40;99.90;;;;;;5028032;28;20380;-57
2022/08/06 00:48:09;;;;;;;4.93;0.55;;;13.40;99.90;;;;;;5009162;28;20040;-63
2022/08/06 00:50:34;;;;;;;3.95;0.70;;;13.40;99.90;;;;;;5029273;28;20045;-60
2022/08/06 00:53:01;;;;;;;4.03;0.68;;;13.30;99.90;;;;;;5028135;28;20111;-64
2022/08/06 00:55:27;;;;;;;5.97;1.05;;;13.30;99.90;;;;;;5028912;28;20466;-58
2022/08/06 00:57:52;;;;;;;4.65;0.65;;;13.30;99.90;;;;;;5027094;28;20072;-60
2022/08/06 01:00:18;;;;;;;6.22;0.57;;;13.30;99.90;;;;;;5027295;28;20061;-58
2022/08/06 01:02:44;;;;;;;1.55;0.70;;;13.30;99.90;;;;;;5029425;28;20111;-59
2022/08/06 01:05:10;;;;;;;4.03;0.55;;;13.30;99.90;;;;;;5028047;28;20484;-62
2022/08/06 01:07:35;;;;;;;2.53;0.70;;;13.20;99.90;;;;;;5029403;28;20081;-55
2022/08/06 01:10:02;;;;;;;2.53;0.50;;;13.20;99.90;;;;;;5025872;28;20049;-56
2022/08/06 01:12:27;;;;;;;0.57;0.40;;;13.20;99.90;;;;;;5029098;28;20109;-64
2022/08/06 01:14:53;;;;;;;5.40;0.63;;;13.20;99.90;;;;;;5028660;28;20464;-59
2022/08/06 01:17:29;;;;;;;2.83;0.55;;;13.20;99.90;;;;;;5010858;28;20072;-58
2022/08/06 01:20:01;;;;;;;3.75;0.60;;;13.20;99.90;;;;;;5027692;28;20045;-58
2022/08/06 01:22:47;;;;;;;0.65;0.45;;;13.20;99.90;;;;;;5027442;28;20585;-57
2022/08/06 01:25:38;;;;;;;5.35;0.70;;;13.10;99.90;;;;;;5029309;28;20061;-67
2022/08/06 01:28:41;;;;;;;5.88;0.60;;;13.10;99.90;;;;;;5028389;28;20041;-57
2022/08/06 01:31:10;;;;;;;2.08;0.43;;;13.20;99.90;;;;;;5002762;28;20393;-62
2022/08/06 01:33:44;;;;;;;2.45;0.65;;;13.10;99.90;;;;;;5023860;28;20041;-57
2022/08/06 01:36:15;;;;;;;3.33;1.30;;;13.10;99.90;;;;;;5023163;28;20050;-55
2022/08/06 01:38:50;;;;;;;1.52;0.77;;;12.90;99.90;;;;;;5010969;28;20563;-60
2022/08/06 01:41:39;;;;;;;1.70;0.90;;;12.70;99.90;;;;;;5008879;28;20940;-60
2022/08/06 01:44:15;;;;;;;1.63;0.60;;;12.60;99.90;;;;;;5002766;28;20046;-57
2022/08/06 01:46:44;;;;;;;3.60;0.60;;;12.40;99.90;;;;;;5028504;28;20081;-66
2022/08/06 01:49:11;;;;;;;5.70;0.40;;;12.30;99.90;;;;;;5009453;28;20061;-56
2022/08/06 01:51:39;;;;;;;0.28;0.28;;;12.20;99.90;;;;;;5027976;28;20045;-60
2022/08/06 01:54:07;;;;;;;7.47;1.15;;;12.10;99.90;;;;;;5027798;28;20088;-64
2022/08/06 01:56:37;;;;;;;8.70;0.50;;;12.00;99.90;;;;;;5007829;28;20114;-62
2022/08/06 01:59:05;;;;;;;3.03;0.40;;;11.90;99.90;;;;;;4994230;28;20088;-57
2022/08/06 02:01:33;;;;;;;1.30;0.43;;;11.80;99.90;;;;;;5026855;28;20045;-65
2022/08/06 02:04:01;;;;;;;1.38;0.40;;;11.90;99.90;;;;;;5027110;28;20480;-64
2022/08/06 02:06:34;;;;;;;1.27;0.68;;;11.90;99.90;;;;;;5008681;28;20061;-56
2022/08/06 02:09:05;;;;;;;1.08;0.30;;;11.90;99.90;;;;;;5026742;28;20109;-62
2022/08/06 02:11:34;;;;;;;1.77;0.50;;;11.90;99.90;;;;;;5028653;28;20073;-57
2022/08/06 02:14:01;;;;;;;1.80;0.57;;;11.90;99.90;;;;;;5026389;28;20045;-56
2022/08/06 02:16:34;;;;;;;1.10;0.50;;;11.90;99.90;;;;;;5028256;28;20743;-57
2022/08/06 02:19:03;;;;;;;3.38;0.60;;;11.90;99.90;;;;;;5024582;28;20060;-65
2022/08/06 02:21:31;;;;;;;4.80;0.60;;;11.90;99.90;;;;;;5028238;28;20045;-65
2022/08/06 02:23:59;;;;;;;0.68;0.43;;;11.90;99.90;;;;;;5009104;28;20054;-57
2022/08/06 02:26:26;;;;;;;1.33;0.50;;;11.90;99.90;;;;;;5009223;28;20053;-61
2022/08/06 02:28:55;;;;;;;0.80;0.50;;;11.90;99.90;;;;;;5027492;28;20095;-58
2022/08/06 02:31:26;;;;;;;1.73;0.55;;;11.80;99.90;;;;;;5025744;28;20095;-58
2022/08/06 02:33:52;;;;;;;5.82;0.60;;;11.70;99.90;;;;;;5010201;28;20049;-65
2022/08/06 02:36:48;;;;;;;0.85;0.43;;;11.70;99.90;;;;;;5008738;28;20115;-57
2022/08/06 02:39:19;;;;;;;4.28;0.50;;;11.70;99.90;;;;;;5026861;28;20041;-56
2022/08/06 02:42:00;;;;;;;0.95;0.52;;;11.70;99.90;;;;;;5009631;28;20065;-66
2022/08/06 02:44:37;;;;;;;1.08;0.55;;;11.60;99.90;;;;;;4988428;28;20034;-57
2022/08/06 02:47:11;;;;;;;0.35;0.35;;;11.50;99.90;;;;;;5020912;28;20467;-57
2022/08/06 02:49:40;;;;;;;2.15;0.68;;;11.50;99.90;;;;;;5026041;28;20057;-67
2022/08/06 02:52:34;;;;;;;4.57;0.40;;;11.50;99.90;;;;;;5013831;28;20438;-59
2022/08/06 02:55:11;;;;;;;8.20;1.83;;;11.50;99.90;;;;;;5003894;28;20058;-54
2022/08/06 02:57:40;;;;;;;3.70;0.70;;;11.50;99.90;;;;;;5026243;28;20053;-67
2022/08/06 03:00:08;;;;;;;;;;;11.60;99.90;;;;;;5027309;28;20251;-55
2022/08/06 03:02:37;;;;;;;1.75;0.50;;;11.60;99.90;;;;;;5008280;28;19921;-58
2022/08/06 03:05:06;;;;;;;5.65;0.70;;;11.60;99.90;;;;;;5024827;28;20057;-63
2022/08/06 03:07:34;;;;;;;1.33;0.40;;;11.70;99.90;;;;;;5026776;28;20037;-63
2022/08/06 03:10:01;;;;;;;2.88;0.68;;;11.70;99.90;;;;;;5024757;28;20041;-62
2022/08/06 03:12:28;;;;;;;1.17;0.80;;;11.70;99.90;;;;;;5027139;28;20103;-56
2022/08/06 03:14:56;;;;;;;3.17;0.45;;;11.70;99.90;;;;;;5005947;28;20045;-64
2022/08/06 03:17:23;;;;;;;1.52;0.52;;;11.70;99.90;;;;;;5009211;28;20525;-58
2022/08/06 03:19:53;;;;;;;1.70;0.30;;;11.60;99.90;;;;;;5025763;28;20045;-62
2022/08/06 03:22:19;;;;;;;3.45;0.60;;;11.60;99.90;;;;;;5026406;28;20136;-62
2022/08/06 03:24:46;;;;;;;2.58;0.60;;;11.60;99.90;;;;;;5026860;28;20887;-56
2022/08/06 03:27:15;;;;;;;1.25;0.35;;;11.60;99.90;;;;;;5007040;28;20107;-63
2022/08/06 03:29:43;;;;;;;9.48;0.60;;;11.60;99.90;;;;;;5026593;28;20049;-61
2022/08/06 03:32:11;;;;;;;2.83;0.85;;;11.50;99.90;;;;;;5025037;28;20054;-61
2022/08/06 03:34:38;;;;;;;5.20;0.85;;;11.40;99.90;;;;;;5026878;28;20123;-63
2022/08/06 03:37:05;;;;;;;1.40;0.50;;;11.30;99.90;;;;;;5023473;28;20491;-61
2022/08/06 03:39:32;;;;;;;2.45;0.60;;;11.30;99.90;;;;;;5026612;28;20046;-56
2022/08/06 03:41:58;;;;;;;1.20;0.50;;;11.20;99.90;;;;;;5026067;28;20049;-54
2022/08/06 03:44:24;;;;;;;1.50;0.77;;;11.20;99.90;;;;;;5002399;28;20045;-65
2022/08/06 03:47:16;;;;;;;0.85;0.60;;;11.20;99.90;;;;;;5026104;28;20494;-55
2022/08/06 03:49:50;;;;;;;2.40;0.60;;;11.20;99.90;;;;;;5018709;28;20085;-61
2022/08/06 03:52:21;;;;;;;2.40;0.60;;;11.20;99.90;;;;;;5026421;28;20107;-66
2022/08/06 03:54:52;;;;;;;2.47;0.63;;;11.10;99.90;;;;;;5020079;28;20053;-62
2022/08/06 03:57:21;;;;;;;1.25;0.50;;;11.10;99.90;;;;;;5025691;28;20120;-56
2022/08/06 03:59:51;;;;;;;1.73;0.50;;;11.00;99.90;;;;;;5026453;28;20058;-59
2022/08/06 04:02:18;;;;;;;1.27;0.50;;;11.10;99.90;;;;;;5024912;28;20046;-64
2022/08/06 04:04:45;;;;;;;0.63;0.47;;;11.10;99.90;;;;;;5024280;28;20126;-61
2022/08/06 04:07:14;;;;;;;2.60;0.70;;;11.00;99.90;;;;;;5005437;28;20090;-57
2022/08/06 04:09:40;;;;;;;0.50;0.50;;;11.10;99.90;;;;;;5026589;28;20047;-60
2022/08/06 04:12:07;;;;;;;2.63;0.50;;;11.10;99.90;;;;;;5025217;28;20071;-54
2022/08/06 04:14:34;;;;;;;1.90;0.65;;;11.10;99.90;;;;;;5025594;28;20045;-63
2022/08/06 04:17:03;;;;;;;0.47;0.40;;;11.10;99.90;;;;;;4991495;28;20060;-61
2022/08/06 04:19:30;;;;;;;3.13;0.50;;;11.20;99.90;;;;;;5025171;28;20046;-61
2022/08/06 04:21:56;;;;;;;1.90;0.60;;;11.20;99.90;;;;;;5011895;28;20585;-65
2022/08/06 04:24:22;;;;;;;2.67;0.50;;;11.20;99.90;;;;;;5028314;28;20072;-60
2022/08/06 04:26:53;;;;;;;1.75;0.52;;;11.20;99.90;;;;;;5028937;28;20072;-66
2022/08/06 04:29:20;;;;;;;0.68;0.43;;;11.20;99.90;;;;;;4992102;28;20104;-56
2022/08/06 04:31:50;;;;;;;4.45;0.60;;;11.10;99.90;;;;;;5029824;28;20119;-59
2022/08/06 04:34:26;;;;;;;4.45;0.40;;;11.10;99.90;;;;;;5029846;28;20052;-65
2022/08/06 04:36:53;;;;;;;2.50;1.05;;;11.20;99.90;;;;;;5027948;28;20095;-65
2022/08/06 04:39:20;;;;;;;2.30;0.50;;;11.20;99.90;;;;;;5029552;28;20099;-61
2022/08/06 04:41:46;;;;;;;5.80;0.60;;;11.20;99.90;;;;;;5028390;28;20085;-65
2022/08/06 04:44:12;;;;;;;3.05;0.90;;;11.30;99.90;;;;;;4995573;28;20491;-60
2022/08/06 04:46:38;;;;;;;4.40;0.70;;;11.30;99.90;;;;;;5028544;28;20060;-60
2022/08/06 04:49:04;;;;;;;4.28;0.73;;;11.40;99.90;;;;;;5000711;28;20547;-57
2022/08/06 04:51:30;;;;;;;3.47;0.60;;;11.40;99.90;;;;;;5011936;28;20128;-57
2022/08/06 04:53:56;;;;;;;1.25;0.60;;;11.50;99.90;;;;;;5028620;28;20404;-66
2022/08/06 04:56:22;;;;;;;3.30;0.70;;;11.60;99.90;;;;;;5029378;28;20770;-58
2022/08/06 04:58:48;;;;;;;2.20;0.70;;;11.60;99.90;;;;;;5026267;28;20045;-65
2022/08/06 05:01:14;;;;;;;1.15;0.40;;;11.70;99.90;;;;;;5008177;28;20096;-57
2022/08/06 05:03:40;;;;;;;1.80;0.70;;;11.80;99.90;;;;;;5010666;28;20064;-66
2022/08/06 05:06:13;;;;;;;0.50;0.40;;;11.80;99.90;;;;;;5028961;28;20732;-55
2022/08/06 05:08:41;;;;;;;4.60;0.90;;;11.80;99.90;;;;;;5027730;28;20388;-56
2022/08/06 05:11:15;;;;;;;2.83;0.60;;;11.80;99.90;;;;;;5028014;28;20127;-55
2022/08/06 05:13:44;;;;;;;1.40;0.50;;;11.90;99.90;;;;;;5029439;28;20129;-57
2022/08/06 05:16:12;;;;;;;2.83;0.60;;;11.90;99.90;;;;;;5027173;28;20046;-65
2022/08/06 05:18:50;;;;;;;0.82;0.50;;;12.00;99.90;;;;;;5028479;28;20052;-55
2022/08/06 05:21:23;;;;;;;3.88;1.10;;;12.00;99.90;;;;;;5008576;28;20060;-64
2022/08/06 05:23:53;;;;;;;3.35;0.80;;;12.00;99.90;;;;;;5027892;28;20038;-56
2022/08/06 05:26:20;;;;;;;1.33;0.45;;;12.10;99.90;;;;;;5028100;28;20476;-61
2022/08/06 05:28:45;;;;;;;3.30;0.60;;;12.10;99.90;;;;;;5027751;28;20412;-64
2022/08/06 05:31:11;;;;;;;2.80;0.50;;;12.10;99.90;;;;;;5025757;28;20052;-57
2022/08/06 05:33:38;;;;;;;3.13;0.40;;;12.20;99.90;;;;;;5027672;28;20665;-59
2022/08/06 05:36:06;;;;;;;1.10;0.40;;;12.20;99.90;;;;;;5028925;28;20128;-66
2022/08/06 05:38:35;;;;;;;1.63;0.60;;;12.30;99.90;;;;;;5028253;28;20048;-59
2022/08/06 05:41:01;;;;;;;1.55;0.63;;;12.30;99.90;;;;;;5019604;28;20044;-66
2022/08/06 05:43:27;;;;;;;1.65;0.85;;;12.30;99.90;;;;;;5027866;28;20179;-55
2022/08/06 05:46:01;;;;;;;1.25;0.52;;;12.40;99.90;;;;;;5009242;28;20124;-56
2022/08/06 05:48:32;;;;;;;3.75;0.60;;;12.40;99.90;;;;;;5010833;28;20044;-62
2022/08/06 05:51:11;;;;;;;5.00;0.70;;;12.50;99.90;;;;;;5004156;28;20037;-58
2022/08/06 05:53:51;;;;;;;0.73;0.55;;;12.50;99.90;;;;;;5028240;28;20098;-63
2022/08/06 05:56:22;;;;;;;4.38;0.98;;;12.60;99.90;;;;;;5010311;28;20311;-59
2022/08/06 05:59:01;;;;;;;2.78;0.52;;;12.80;99.90;;;;;;5008089;28;20057;-57
2022/08/06 06:01:27;;;;;;;3.43;0.60;;;12.90;99.90;;;;;;5008231;28;20034;-57
2022/08/06 06:03:55;;;;;;;0.77;0.40;;;13.10;99.90;;;;;;5007084;28;20057;-62
2022/08/06 06:06:22;;;;;;;3.00;0.85;;;13.30;99.90;;;;;;5008182;28;20046;-53
2022/08/06 06:08:48;;;;;;;1.88;0.50;;;13.40;99.90;;;;;;5007256;28;20099;-64
2022/08/06 06:11:14;;;;;;;0.52;0.35;;;13.60;99.90;;;;;;4989480;28;20443;-64
2022/08/06 06:13:41;;;;;;;1.80;0.50;;;13.80;99.90;;;;;;5008343;28;20076;-62
2022/08/06 06:16:26;;;;;;;2.50;0.65;;;13.90;99.90;;;;;;5007242;28;20053;-57
2022/08/06 06:19:11;;;;;;;4.13;0.77;;;14.10;99.90;;;;;;4990712;28;20045;-56
2022/08/06 06:21:40;;;;;;;4.07;0.63;;;14.30;99.90;;;;;;4995357;28;20373;-59
2022/08/06 06:24:13;;;;;;;4.55;0.68;;;14.50;99.90;;;;;;5006148;28;20464;-63
2022/08/06 06:27:18;;;;;;;1.85;0.80;;;14.50;99.90;;;;;;4995544;28;20148;-58
2022/08/06 06:30:04;;;;;;;2.10;0.40;;;14.70;99.90;;;;;;4982887;28;20077;-57
2022/08/06 06:33:00;;;;;;;0.95;0.63;;;14.80;99.90;;;;;;5003911;28;20034;-58
2022/08/06 06:35:53;;;;;;;3.45;0.77;;;14.90;99.90;;;;;;4997213;28;20480;-61
2022/08/06 06:38:46;;;;;;;2.25;0.45;;;15.00;99.90;;;;;;5006266;28;20046;-62
2022/08/06 06:41:21;;;;;;;7.30;1.08;;;15.10;99.90;;;;;;4997733;28;20060;-63
2022/08/06 06:44:07;;;;;;;1.27;0.52;;;15.10;99.90;;;;;;4989862;28;20053;-58
2022/08/06 06:46:36;;;;;;;1.38;0.60;;;15.10;99.90;;;;;;5004955;28;20141;-62
2022/08/06 06:49:11;;;;;;;2.13;0.90;;;15.10;99.90;;;;;;4989648;28;20511;-59
2022/08/06 06:51:46;;;;;;;0.75;0.52;;;15.20;99.90;;;;;;5004612;28;20054;-57
2022/08/06 06:54:22;;;;;;;3.55;0.70;;;15.30;99.90;;;;;;5006564;28;20496;-64
2022/08/06 06:56:52;;;;;;;2.88;0.70;;;15.40;99.90;;;;;;5006874;28;20439;-63
2022/08/06 06:59:24;;;;;;;1.67;0.70;;;15.60;99.90;;;;;;4990345;28;20054;-53
2022/08/06 07:01:52;;;;;;;0.65;0.40;;;15.70;99.90;;;;;;5006404;28;20042;-52
2022/08/06 07:04:20;;;;;;;3.28;0.93;;;15.80;99.90;;;;;;5005089;28;20092;-52
2022/08/06 07:06:47;;;;;;;0.90;0.38;;;16.00;99.90;;;;;;5007113;28;20046;-54
2022/08/06 07:09:18;;;;;;;4.40;0.65;;;16.10;99.90;;;;;;5006112;28;20053;-62
2022/08/06 07:11:45;;;;;;;5.28;1.30;;;16.40;99.90;;;;;;5006196;28;20050;-57
2022/08/06 07:14:12;;;;;;;3.67;0.40;;;16.50;99.90;;;;;;5007332;28;20046;-54
2022/08/06 07:16:39;;;;;;;2.78;0.50;;;16.70;99.90;;;;;;4988233;28;20081;-58
2022/08/06 07:19:07;;;;;;;1.58;0.68;;;17.00;99.90;;;;;;5007000;28;20479;-65
2022/08/06 07:21:34;;;;;;;1.08;0.32;;;17.20;99.90;;;;;;5003853;28;20092;-61
2022/08/06 07:24:00;;;;;;;2.38;0.90;;;17.50;97.70;;;;;;5007157;28;20045;-57
2022/08/06 07:26:28;;;;;;;2.50;0.40;;;17.70;97.10;;;;;;5003011;28;20123;-55
2022/08/06 07:28:55;;;;;;;3.22;0.40;;;17.80;96.50;;;;;;5003176;28;20038;-66
2022/08/06 07:31:26;;;;;;;2.63;0.47;;;18.10;92.30;;;;;;5005576;28;20114;-67
2022/08/06 07:33:52;;;;;;;1.98;0.32;;;18.40;90.60;;;;;;5005322;28;20148;-60
2022/08/06 07:36:23;;;;;;;4.13;0.52;;;18.60;93.70;;;;;;4988884;28;20045;-66
2022/08/06 07:38:50;;;;;;;2.70;0.45;;;18.90;88.50;;;;;;5005589;28;20082;-57
2022/08/06 07:41:17;;;;;;;5.60;0.95;;;19.20;70.00;;;;;;5007138;28;20038;-55
2022/08/06 07:43:54;;;;;;;1.10;0.30;;;19.20;74.50;;;;;;5005493;28;20111;-62
2022/08/06 07:46:29;;;;;;;1.20;0.47;;;19.50;59.30;;;;;;5001977;28;20388;-64
2022/08/06 07:49:06;;;;;;;4.10;0.52;;;19.60;60.80;;;;;;4987006;28;20073;-56
2022/08/06 07:51:38;;;;;;;1.92;0.30;;;19.50;57.10;;;;;;4988494;28;20061;-55
2022/08/06 07:54:05;;;;;;;2.70;0.40;;;19.40;58.00;;;;;;5004197;28;20041;-63
2022/08/06 07:56:34;;;;;;;1.65;0.50;;;19.30;63.50;;;;;;4989130;28;20081;-65
2022/08/06 07:59:00;;;;;;;3.60;0.90;;;19.40;69.90;;;;;;5006225;28;20057;-66
2022/08/06 08:01:27;;;;;;;1.83;0.40;;;19.50;61.50;;;;;;5007241;28;20377;-54
2022/08/06 08:06:39;;;;;;;1.38;0.22;;;19.60;58.10;;;;;;4993387;28;20104;-56
2022/08/06 08:09:26;;;;;;;3.30;0.60;;;19.20;44.50;;;;;;5007025;28;20052;-61
2022/08/06 08:11:52;;;;;;;1.35;0.50;;;19.40;54.10;;;;;;4990623;28;20114;-57
2022/08/06 08:14:20;;;;;;;2.40;0.55;;;19.40;51.50;;;;;;5008069;28;20427;-59
2022/08/06 08:16:46;;;;;;;0.68;0.35;;;19.20;57.10;;;;;;5009227;28;20052;-61
2022/08/06 08:19:32;;;;;;;1.30;0.30;;;18.90;55.70;;;;;;5010067;28;20077;-52
2022/08/06 08:21:59;;;;;;;3.05;0.50;;;18.40;60.20;;;;;;4991251;28;20596;-55
2022/08/06 08:24:28;;;;;;;0.88;0.30;;;17.90;73.90;;;;;;5008395;28;20052;-64
2022/08/06 08:26:55;;;;;;;1.85;0.63;;;17.40;79.00;;;;;;5007789;28;20045;-56
2022/08/06 08:29:20;;;;;;;2.30;0.43;;;17.10;91.60;;;;;;4992425;28;20108;-64
2022/08/06 08:31:46;;;;;;;0.85;0.32;;;17.00;89.80;;;;;;5009131;28;20451;-51
2022/08/06 08:34:12;;;;;;;1.25;0.57;;;16.90;89.50;;;;;;5008296;28;20271;-56
2022/08/06 08:36:39;;;;;;;1.77;0.32;;;16.80;92.00;;;;;;5009751;28;20046;-56
2022/08/06 08:39:05;;;;;;;1.75;0.60;;;16.70;93.10;;;;;;5008812;28;20038;-59
2022/08/06 08:42:06;;;;;;;2.05;0.63;;;16.60;96.20;;;;;;5009645;28;20034;-56
2022/08/06 08:44:33;;;;;;;3.08;0.55;;;16.70;96.40;;;;;;4959451;28;20154;-60
2022/08/06 08:47:00;;;;;;;2.10;1.02;;;16.70;95.00;;;;;;4991528;28;20035;-60
2022/08/06 08:49:45;;;;;;;3.47;0.77;;;16.80;98.40;;;;;;4991667;28;20054;-60
2022/08/06 08:52:17;;;;;;;2.58;0.50;;;16.90;93.60;;;;;;5007982;28;20492;-60
2022/08/06 08:54:50;;;;;;;2.42;0.60;;;16.90;95.00;;;;;;4985022;28;20050;-65
2022/08/06 08:57:18;;;;;;;2.58;0.73;;;16.90;92.90;;;;;;5008354;28;20598;-57
2022/08/06 08:59:44;;;;;;;4.22;1.50;;;17.00;92.00;;;;;;4983520;28;20056;-62
2022/08/06 09:02:13;;;;;;;1.98;0.50;;;17.40;95.00;;;;;;5028852;28;20045;-57
2022/08/06 09:04:40;;;;;;;2.70;0.80;;;17.90;87.70;;;;;;5027216;28;20041;-55
2022/08/06 09:07:07;;;;;;;3.78;0.75;;;18.20;90.70;;;;;;5029211;28;20120;-57
2022/08/06 09:09:34;;;;;;;8.07;0.88;;;18.60;91.20;;;;;;5027136;28;20081;-64
2022/08/06 09:12:00;;;;;;;2.58;0.80;;;18.90;60.80;;;;;;5029463;28;20438;-58
2022/08/06 09:14:26;;;;;;;1.98;0.55;;;19.20;55.20;;;;;;5009709;28;20060;-58
2022/08/06 09:16:52;;;;;;;3.13;0.77;;;19.50;59.00;;;;;;5009178;28;20064;-56
2022/08/06 09:19:19;;;;;;;1.25;0.52;;;19.70;39.80;;;;;;5028576;28;20049;-54
2022/08/06 09:21:45;;;;;;;3.47;1.00;;;19.90;26.70;;;;;;5027596;28;20164;-59
2022/08/06 09:24:11;;;;;;;3.65;0.85;;;19.70;26.60;;;;;;5029251;28;20460;-62
2022/08/06 09:26:37;;;;;;;1.80;0.70;;;19.50;42.20;;;;;;5007082;28;20142;-61
2022/08/06 09:29:20;;;;;;;0.82;0.60;;;19.20;40.20;;;;;;5011208;28;20049;-57
2022/08/06 09:31:45;;;;;;;3.83;0.68;;;18.80;55.10;;;;;;5026482;28;20120;-56
2022/08/06 09:34:11;;;;;;;2.15;0.70;;;18.50;55.50;;;;;;5028993;28;20552;-56
2022/08/06 09:36:45;;;;;;;2.55;0.80;;;18.30;62.20;;;;;;5010230;28;20523;-65
2022/08/06 09:39:11;;;;;;;4.20;0.70;;;18.20;60.90;;;;;;4993340;28;20056;-53
2022/08/06 09:41:46;;;;;;;4.85;0.80;;;18.50;60.70;;;;;;5010517;28;20049;-62
2022/08/06 09:44:12;;;;;;;2.88;1.00;;;18.70;61.70;;;;;;4992890;28;20050;-59
2022/08/06 09:46:42;;;;;;;2.55;1.00;;;18.70;54.80;;;;;;5025754;28;20048;-61
2022/08/06 09:49:11;;;;;;;4.25;1.00;;;18.50;54.60;;;;;;5026565;28;20167;-56
2022/08/06 09:51:37;;;;;;;2.80;0.90;;;18.40;54.50;;;;;;5027194;28;20148;-59
2022/08/06 09:54:09;;;;;;;3.22;0.88;;;18.20;62.00;;;;;;5025277;28;20095;-56
2022/08/06 09:56:37;;;;;;;4.88;1.45;;;18.10;63.50;;;;;;5026150;28;20626;-63
2022/08/06 09:59:07;;;;;;;3.90;1.35;;;18.20;66.10;;;;;;5020713;28;20120;-59
2022/08/06 10:01:43;;;;;;;4.15;1.25;;;18.60;66.90;;;;;;5023459;28;20132;-68
2022/08/06 10:04:22;;;;;;;2.60;0.77;;;18.90;54.60;;;;;;5025408;28;20923;-64
2022/08/06 10:07:01;;;;;;;2.03;0.90;;;19.20;42.30;;;;;;5007739;28;20052;-56
2022/08/06 10:09:28;;;;;;;1.58;0.90;;;19.40;42.00;;;;;;5007272;28;20081;-62
2022/08/06 10:11:54;;;;;;;2.72;1.10;;;19.60;31.80;;;;;;5027178;28;20045;-57
2022/08/06 10:14:31;;;;;;;2.25;1.10;;;19.70;21.60;;;;;;5008704;28;20049;-64
2022/08/06 10:17:05;;;;;;;0.85;0.70;;;19.80;34.50;;;;;;5009707;28;20103;-59
2022/08/06 10:19:31;;;;;;;4.35;1.05;;;19.80;22.80;;;;;;5019801;28;20048;-49
2022/08/06 10:22:07;;;;;;;3.53;1.02;;;19.80;24.70;;;;;;5026846;28;20038;-63
2022/08/06 10:24:41;;;;;;;3.80;1.10;;;19.80;24.80;;;;;;5010232;28;20407;-65
2022/08/06 10:27:10;;;;;;;2.10;1.10;;;19.80;19.80;;;;;;5025694;28;20060;-65
2022/08/06 10:29:59;;;;;;;5.18;1.10;;;19.80;24.40;;;;;;5026843;28;20080;-68
2022/08/06 10:32:43;;;;;;;3.28;1.00;;;19.90;30.50;;;;;;5007366;28;20484;-59
2022/08/06 10:35:09;;;;;;;2.88;1.00;;;20.00;29.10;;;;;;5006347;28;20068;-56
2022/08/06 10:37:41;;;;;;;1.80;1.05;;;20.00;26.80;;;;;;5026584;28;20042;-56
2022/08/06 10:40:11;;;;;;;2.75;0.90;;;20.20;30.00;;;;;;5023868;28;20198;-67
2022/08/06 10:42:39;;;;;;;2.80;1.13;;;20.20;23.80;;;;;;5027148;28;20872;-61
2022/08/06 10:45:05;;;;;;;4.43;1.10;;;19.90;20.60;;;;;;5025926;28;20053;-56
2022/08/06 10:47:33;;;;;;;3.58;1.08;;;19.60;23.40;;;;;;5027429;28;20051;-53
2022/08/06 10:50:00;;;;;;;3.20;0.98;;;19.30;22.00;;;;;;5024078;28;20054;-52
2022/08/06 10:52:26;;;;;;;5.32;1.10;;;19.00;31.00;;;;;;5023368;28;20041;-60
2022/08/06 10:54:53;;;;;;;2.15;1.05;;;18.90;37.90;;;;;;5008562;28;20037;-57
2022/08/06 10:57:20;;;;;;;1.80;1.13;;;18.80;33.80;;;;;;5025130;28;20053;-56
2022/08/06 10:59:47;;;;;;;3.90;1.10;;;19.00;42.80;;;;;;5008155;28;20053;-59
2022/08/06 11:02:29;;;;;;;1.58;1.23;;;19.20;29.70;;;;;;5024318;28;20160;-58
2022/08/06 11:05:11;;;;;;;3.80;1.30;;;19.10;26.90;;;;;;5023463;28;20034;-57
2022/08/06 11:07:58;;;;;;;2.05;1.13;;;19.30;40.50;;;;;;5021738;28;20156;-56
2022/08/06 11:10:48;;;;;;;2.92;1.40;;;19.50;26.50;;;;;;5024336;28;20132;-57
2022/08/06 11:13:26;;;;;;;1.83;1.15;;;19.50;22.00;;;;;;5025798;28;20413;-56
2022/08/06 11:15:52;;;;;;;2.85;1.35;;;19.50;16.70;;;;;;5008116;28;20537;-53
2022/08/06 11:18:21;;;;;;;4.25;1.30;;;19.50;14.60;;;;;;5025555;28;20407;-55
2022/08/06 11:20:49;;;;;;;3.88;1.30;;;19.60;12.80;;;;;;5008112;28;20057;-56
2022/08/06 11:23:15;;;;;;;1.60;1.20;;;19.70;18.60;;;;;;5022224;28;20099;-66
2022/08/06 11:25:52;;;;;;;3.85;1.52;;;19.80;13.50;;;;;;5008251;28;20053;-62
2022/08/06 11:28:20;;;;;;;3.38;1.30;;;19.90;16.20;;;;;;5022003;28;20124;-59
2022/08/06 11:30:51;;;;;;;1.67;1.58;;;19.90;13.70;;;;;;5024866;28;20045;-62
2022/08/06 11:33:39;;;;;;;2.13;1.77;;;19.90;17.20;;;;;;5025193;28;20130;-66
2022/08/06 11:36:12;;;;;;;2.97;1.80;;;19.90;17.80;;;;;;5018927;28;20462;-62
2022/08/06 11:38:50;;;;;;;2.92;1.60;;;19.90;12.90;;;;;;5026169;28;20081;-56
2022/08/06 11:41:18;;;;;;;2.08;1.38;;;19.90;13.70;;;;;;5025577;28;20415;-57
2022/08/06 11:43:51;;;;;;;4.43;1.75;;;19.80;15.60;;;;;;5025389;28;20073;-67
2022/08/06 11:46:25;;;;;;;2.92;1.80;;;19.80;21.90;;;;;;5020946;28;20053;-65
2022/08/06 11:49:00;;;;;;;3.70;1.50;;;19.90;19.00;;;;;;5007210;28;20049;-53
2022/08/06 11:51:48;;;;;;;1.50;1.40;;;19.80;10.00;;;;;;5021587;28;20084;-59
2022/08/06 11:54:21;;;;;;;1.88;1.50;;;19.60;13.50;;;;;;5024548;28;20407;-56
2022/08/06 11:57:01;;;;;;;1.98;1.33;;;19.60;18.50;;;;;;5025624;28;20038;-64
2022/08/06 11:59:27;;;;;;;8.30;3.17;;;19.80;14.10;;;;;;5019651;28;20065;-53
2022/08/06 12:01:53;;;;;;;2.92;1.67;;;19.70;13.30;;;;;;4984400;28;20060;-63
2022/08/06 12:04:42;;;;;;;3.58;1.90;;;19.50;20.50;;;;;;4983703;28;20164;-61
2022/08/06 12:07:21;;;;;;;5.82;2.00;;;19.40;23.30;;;;;;5002542;28;20054;-60
2022/08/06 12:10:07;;;;;;;4.15;1.88;;;19.50;26.10;;;;;;4998702;28;20053;-60
2022/08/06 12:12:34;;;;;;;3.90;2.08;;;19.70;21.10;;;;;;4981438;28;20081;-67
2022/08/06 12:15:12;;;;;;;1.70;1.60;;;19.60;24.70;;;;;;4997694;28;20049;-54
2022/08/06 12:17:42;;;;;;;2.90;1.98;;;19.60;17.20;;;;;;4995132;28;20406;-58
2022/08/06 12:20:08;;;;;;;1.92;1.70;;;19.60;30.90;;;;;;4982977;28;20120;-60
2022/08/06 12:22:35;;;;;;;1.55;1.42;;;19.50;26.50;;;;;;4998914;28;20598;-61
2022/08/06 12:25:06;;;;;;;1.45;1.38;;;19.50;21.70;;;;;;4988127;28;20053;-60
2022/08/06 12:27:36;;;;;;;1.70;1.52;;;19.60;15.30;;;;;;5002301;28;20501;-61
2022/08/06 12:30:04;;;;;;;4.82;1.80;;;19.90;27.20;;;;;;5003731;28;20042;-59
2022/08/06 12:32:34;;;;;;;2.88;1.70;;;19.90;16.60;;;;;;5004101;28;20487;-57
2022/08/06 12:35:02;;;;;;;1.73;1.63;;;19.90;11.40;;;;;;5005099;28;20042;-63
2022/08/06 12:37:55;;;;;;;2.53;1.70;;;19.90;15.40;;;;;;5005057;28;20054;-62
2022/08/06 12:40:27;;;;;;;1.65;1.55;;;19.90;12.30;;;;;;4992339;28;20145;-65
2022/08/06 12:43:14;;;;;;;2.33;1.85;;;19.90;14.80;;;;;;5006116;28;20046;-66
2022/08/06 12:45:41;;;;;;;2.08;1.52;;;19.80;13.50;;;;;;5008038;28;20078;-59
2022/08/06 12:48:09;;;;;;;2.50;1.80;;;19.70;12.30;;;;;;5008700;28;20042;-56
2022/08/06 12:50:36;;;;;;;3.35;2.08;;;19.70;12.00;;;;;;5009254;28;20034;-57
2022/08/06 12:53:05;;;;;;;1.90;1.55;;;19.60;16.80;;;;;;5008434;28;20147;-57
2022/08/06 12:55:32;;;;;;;;;;;19.70;11.20;;;;;;5009328;28;20084;-55
2022/08/06 12:58:00;;;;;;;3.25;1.60;;;19.70;8.80;;;;;;5007696;28;19925;-56
2022/08/06 13:00:27;;;;;;;1.67;1.58;;;19.60;10.00;;;;;;5002257;28;20061;-61
2022/08/06 13:02:54;;;;;;;5.93;1.48;;;19.50;14.80;;;;;;4987644;28;20107;-62
2022/08/06 13:05:25;;;;;;;1.98;1.20;;;19.40;11.80;;;;;;4996493;28;20033;-59
2022/08/06 13:07:53;;;;;;;2.13;1.58;;;19.50;5.40;;;;;;4996694;28;20042;-59
2022/08/06 13:10:19;;;;;;;1.77;1.67;;;19.50;8.20;;;;;;4998418;28;20738;-66